createdAt,value
2022-10-14T00:00:40.352Z,10.60
2022-10-14T00:03:07.115Z,10.60
2022-10-14T00:05:41.135Z,10.60
2022-10-14T00:08:09.677Z,10.50
2022-10-14T00:10:39.839Z,10.60
2022-10-14T00:13:09.098Z,10.50
2022-10-14T00:15:40.034Z,10.50
2022-10-14T00:18:08.210Z,10.50
2022-10-14T00:20:35.374Z,10.50
2022-10-14T00:23:02.539Z,10.50
2022-10-14T00:25:29.552Z,10.50
2022-10-14T00:27:56.430Z,10.40
2022-10-14T00:30:23.323Z,10.40
2022-10-14T00:32:50.044Z,10.50
2022-10-14T00:35:19.173Z,10.50
2022-10-14T00:37:46.146Z,10.50
2022-10-14T00:40:13.222Z,10.50
2022-10-14T00:42:39.966Z,10.50
2022-10-14T00:45:20.516Z,10.50
2022-10-14T00:47:47.381Z,10.50
2022-10-14T00:50:14.261Z,10.50
2022-10-14T00:52:40.998Z,10.40
2022-10-14T00:55:14.375Z,10.40
2022-10-14T00:57:43.269Z,10.30
2022-10-14T01:00:12.855Z,10.20
2022-10-14T01:02:39.841Z,10.20
2022-10-14T01:05:09.906Z,10.20
2022-10-14T01:07:56.964Z,10.20
2022-10-14T01:10:29.231Z,10.20
2022-10-14T01:12:56.094Z,10.20
2022-10-14T01:15:42.529Z,10.20
2022-10-14T01:18:21.169Z,10.10
2022-10-14T01:20:47.941Z,10.10
2022-10-14T01:23:36.032Z,10.10
2022-10-14T01:26:10.153Z,10.10
2022-10-14T01:28:45.789Z,10.00
2022-10-14T01:31:20.357Z,10.00
2022-10-14T01:33:47.090Z,10.00
2022-10-14T01:36:35.331Z,10.00
2022-10-14T01:39:15.385Z,10.00
2022-10-14T01:41:45.897Z,10.00
2022-10-14T01:44:12.891Z,9.90
2022-10-14T01:46:40.741Z,10.00
2022-10-14T01:49:48.522Z,10.00
2022-10-14T01:52:20.166Z,10.00
2022-10-14T01:54:48.054Z,10.10
2022-10-14T01:57:17.473Z,10.00
2022-10-14T01:59:44.273Z,9.90
2022-10-14T02:02:14.193Z,9.90
2022-10-14T02:04:40.994Z,9.90
2022-10-14T02:07:15.119Z,9.90
2022-10-14T02:10:14.949Z,9.90
2022-10-14T02:13:00.468Z,9.90
2022-10-14T02:15:34.537Z,9.90
2022-10-14T02:18:24.077Z,9.90
2022-10-14T02:21:00.036Z,9.90
2022-10-14T02:23:28.835Z,9.90
2022-10-14T02:25:57.700Z,9.80
2022-10-14T02:28:26.595Z,9.80
2022-10-14T02:30:58.675Z,9.80
2022-10-14T02:33:33.164Z,9.80
2022-10-14T02:36:05.795Z,9.70
2022-10-14T02:38:32.529Z,9.70
2022-10-14T02:41:00.296Z,9.70
2022-10-14T02:43:27.286Z,9.70
2022-10-14T02:46:00.148Z,9.80
2022-10-14T02:48:29.245Z,9.80
2022-10-14T02:50:58.169Z,9.80
2022-10-14T02:53:24.896Z,9.80
2022-10-14T02:55:51.675Z,9.80
2022-10-14T02:58:18.425Z,9.80
2022-10-14T03:00:48.193Z,9.80
2022-10-14T03:03:17.332Z,9.80
2022-10-14T03:05:44.367Z,9.80
2022-10-14T03:08:13.702Z,9.80
2022-10-14T03:10:42.602Z,9.80
2022-10-14T03:13:09.381Z,9.80
2022-10-14T03:15:38.503Z,9.80
2022-10-14T03:18:07.703Z,9.70
2022-10-14T03:20:34.690Z,9.70
2022-10-14T03:23:04.243Z,9.70
2022-10-14T03:25:33.540Z,9.70
2022-10-14T03:28:00.391Z,9.70
2022-10-14T03:30:27.245Z,9.70
2022-10-14T03:32:54.024Z,9.60
2022-10-14T03:35:20.912Z,9.60
2022-10-14T03:37:47.777Z,9.60
2022-10-14T03:40:14.597Z,9.60
2022-10-14T03:42:43.629Z,9.60
2022-10-14T03:45:10.903Z,9.60
2022-10-14T03:47:37.719Z,9.60
2022-10-14T03:50:05.192Z,9.60
2022-10-14T03:52:33.264Z,9.60
2022-10-14T03:55:00.039Z,9.60
2022-10-14T03:57:28.954Z,9.50
2022-10-14T03:59:58.311Z,9.50
2022-10-14T04:02:27.592Z,9.50
2022-10-14T04:04:59.813Z,9.50
2022-10-14T04:07:29.806Z,9.50
2022-10-14T04:09:57.029Z,9.50
2022-10-14T04:12:26.050Z,9.50
2022-10-14T04:14:57.217Z,9.50
2022-10-14T04:17:24.850Z,9.50
2022-10-14T04:19:51.932Z,9.50
2022-10-14T04:22:19.298Z,9.50
2022-10-14T04:24:48.679Z,9.50
2022-10-14T04:27:15.422Z,9.60
2022-10-14T04:29:44.655Z,9.60
2022-10-14T04:32:11.400Z,9.60
2022-10-14T04:34:38.489Z,9.60
2022-10-14T04:37:05.311Z,9.50
2022-10-14T04:39:32.114Z,9.50
2022-10-14T04:41:58.929Z,9.50
2022-10-14T04:44:25.670Z,9.50
2022-10-14T04:46:52.422Z,9.50
2022-10-14T04:49:19.186Z,9.50
2022-10-14T04:51:46.023Z,9.50
2022-10-14T04:54:15.273Z,9.50
2022-10-14T04:56:44.587Z,9.50
2022-10-14T04:59:14.445Z,9.50
2022-10-14T05:01:41.629Z,9.50
2022-10-14T05:04:08.465Z,9.50
2022-10-14T05:06:37.477Z,9.50
2022-10-14T05:09:09.970Z,9.50
2022-10-14T05:11:36.732Z,9.40
2022-10-14T05:14:03.516Z,9.30
2022-10-14T05:16:30.287Z,9.30
2022-10-14T05:18:57.617Z,9.30
2022-10-14T05:21:24.488Z,9.30
2022-10-14T05:23:51.342Z,9.30
2022-10-14T05:26:18.168Z,9.40
2022-10-14T05:28:44.994Z,9.40
2022-10-14T05:31:14.093Z,9.40
2022-10-14T05:33:40.823Z,9.40
2022-10-14T05:36:07.954Z,9.40
2022-10-14T05:38:34.877Z,9.40
2022-10-14T05:41:01.796Z,9.40
2022-10-14T05:43:32.353Z,9.40
2022-10-14T05:46:00.068Z,9.40
2022-10-14T05:48:32.266Z,9.50
2022-10-14T05:51:02.259Z,9.50
2022-10-14T05:53:29.331Z,9.50
2022-10-14T05:56:06.746Z,9.60
2022-10-14T05:58:33.803Z,9.60
2022-10-14T06:01:03.647Z,9.50
2022-10-14T06:03:30.587Z,9.50
2022-10-14T06:05:57.352Z,9.50
2022-10-14T06:08:24.857Z,9.50
2022-10-14T06:10:52.397Z,9.50
2022-10-14T06:13:24.345Z,9.50
2022-10-14T06:15:51.167Z,9.50
2022-10-14T06:18:20.304Z,9.60
2022-10-14T06:20:53.932Z,9.60
2022-10-14T06:23:20.815Z,9.70
2022-10-14T06:25:47.559Z,9.70
2022-10-14T06:28:14.386Z,9.80
2022-10-14T06:30:41.333Z,9.80
2022-10-14T06:33:08.173Z,9.70
2022-10-14T06:35:35.257Z,9.70
2022-10-14T06:38:02.011Z,9.70
2022-10-14T06:40:28.760Z,9.70
2022-10-14T06:42:55.569Z,9.70
2022-10-14T06:45:22.356Z,9.70
2022-10-14T06:47:49.118Z,9.70
2022-10-14T06:50:18.515Z,9.80
2022-10-14T06:52:46.134Z,9.80
2022-10-14T06:55:12.987Z,9.80
2022-10-14T06:57:39.793Z,9.90
2022-10-14T07:00:07.196Z,9.90
2022-10-14T07:02:33.973Z,9.90
2022-10-14T07:05:00.901Z,9.90
2022-10-14T07:07:32.840Z,9.90
2022-10-14T07:10:00.013Z,9.90
2022-10-14T07:12:26.938Z,9.90
2022-10-14T07:14:53.661Z,9.90
2022-10-14T07:17:21.093Z,9.90
2022-10-14T07:19:48.011Z,9.90
2022-10-14T07:22:16.469Z,9.90
2022-10-14T07:24:45.752Z,9.90
2022-10-14T07:27:12.554Z,10.00
2022-10-14T07:29:44.245Z,10.00
2022-10-14T07:32:10.981Z,10.10
2022-10-14T07:34:39.854Z,10.10
2022-10-14T07:37:11.230Z,10.20
2022-10-14T07:39:40.262Z,10.20
2022-10-14T07:42:07.211Z,10.20
2022-10-14T07:44:33.968Z,10.20
2022-10-14T07:47:03.339Z,10.30
2022-10-14T07:49:32.540Z,10.40
2022-10-14T07:51:59.308Z,10.50
2022-10-14T07:54:29.382Z,10.50
2022-10-14T07:56:57.943Z,10.60
2022-10-14T07:59:27.239Z,10.70
2022-10-14T08:01:54.333Z,10.80
2022-10-14T08:04:25.844Z,10.90
2022-10-14T08:06:52.849Z,10.90
2022-10-14T08:09:19.875Z,11.00
2022-10-14T08:11:48.830Z,11.10
2022-10-14T08:14:15.840Z,11.10
2022-10-14T08:16:45.240Z,11.20
2022-10-14T08:19:14.639Z,11.20
2022-10-14T08:21:42.739Z,11.30
2022-10-14T08:24:12.159Z,11.40
2022-10-14T08:27:01.124Z,11.40
2022-10-14T08:29:30.326Z,11.50
2022-10-14T08:31:57.078Z,11.50
2022-10-14T08:34:24.553Z,11.60
2022-10-14T08:36:54.007Z,11.70
2022-10-14T08:39:21.625Z,11.80
2022-10-14T08:42:02.374Z,11.90
2022-10-14T08:44:37.824Z,11.90
2022-10-14T08:47:04.706Z,12.00
2022-10-14T08:50:07.004Z,12.00
2022-10-14T08:52:40.601Z,12.10
2022-10-14T08:55:37.454Z,12.20
2022-10-14T09:00:53.283Z,12.40
2022-10-14T09:03:24.753Z,12.40
2022-10-14T09:05:59.799Z,12.40
2022-10-14T09:08:34.032Z,12.50
2022-10-14T09:11:01.115Z,12.50
2022-10-14T09:13:46.685Z,12.60
2022-10-14T09:16:18.914Z,12.60
2022-10-14T09:18:50.994Z,12.70
2022-10-14T09:24:23.893Z,12.90
2022-10-14T09:27:18.096Z,13.00
2022-10-14T09:29:51.095Z,13.00
2022-10-14T09:32:31.742Z,13.00
2022-10-14T09:35:00.962Z,13.00
2022-10-14T09:37:29.345Z,13.10
2022-10-14T09:39:59.399Z,13.20
2022-10-14T09:42:37.075Z,13.20
2022-10-14T09:45:12.427Z,13.30
2022-10-14T09:47:44.850Z,13.40
2022-10-14T09:50:19.951Z,13.40
2022-10-14T09:52:52.587Z,13.40
2022-10-14T09:55:20.440Z,13.40
2022-10-14T09:57:47.686Z,13.50
2022-10-14T10:00:28.549Z,13.50
2022-10-14T10:02:55.399Z,13.50
2022-10-14T10:05:30.253Z,13.50
2022-10-14T10:08:07.637Z,13.60
2022-10-14T10:10:36.586Z,13.60
2022-10-14T10:13:03.480Z,13.60
2022-10-14T10:15:30.331Z,13.70
2022-10-14T10:17:57.092Z,13.70
2022-10-14T10:20:33.885Z,13.80
2022-10-14T10:23:19.448Z,13.80
2022-10-14T10:25:46.326Z,13.80
2022-10-14T10:28:23.574Z,13.90
2022-10-14T10:31:12.943Z,13.90
2022-10-14T10:33:42.745Z,13.90
2022-10-14T10:36:13.411Z,14.00
2022-10-14T10:38:47.560Z,14.00
2022-10-14T10:41:49.937Z,14.10
2022-10-14T10:44:44.700Z,14.10
2022-10-14T10:47:43.565Z,14.20
2022-10-14T10:50:18.619Z,14.30
2022-10-14T10:52:49.069Z,14.40
2022-10-14T10:55:37.680Z,14.40
2022-10-14T10:58:34.424Z,14.50
2022-10-14T11:01:26.331Z,13.20
2022-10-14T11:03:59.195Z,14.60
2022-10-14T11:06:52.567Z,14.60
2022-10-14T11:09:47.257Z,14.70
2022-10-14T11:12:26.169Z,14.80
2022-10-14T11:15:12.151Z,14.80
2022-10-14T11:17:54.145Z,14.90
2022-10-14T11:20:37.182Z,15.00
2022-10-14T11:23:40.143Z,15.00
2022-10-14T11:26:20.573Z,15.10
2022-10-14T11:29:13.462Z,15.10
2022-10-14T11:31:47.235Z,15.10
2022-10-14T11:34:32.589Z,15.20
2022-10-14T11:37:31.727Z,15.20
2022-10-14T11:40:02.843Z,15.20
2022-10-14T11:42:38.947Z,15.20
2022-10-14T11:45:44.405Z,15.30
2022-10-14T11:48:33.901Z,15.30
2022-10-14T11:51:40.603Z,15.40
2022-10-14T11:54:20.138Z,15.40
2022-10-14T11:56:47.061Z,15.50
2022-10-14T11:59:19.781Z,15.50
2022-10-14T12:01:49.456Z,15.50
2022-10-14T12:04:21.133Z,15.50
2022-10-14T12:06:51.869Z,15.50
2022-10-14T12:09:30.768Z,15.60
2022-10-14T12:12:03.681Z,15.60
2022-10-14T12:14:36.250Z,15.60
2022-10-14T12:17:17.613Z,15.60
2022-10-14T12:19:48.329Z,15.60
2022-10-14T12:22:28.322Z,15.60
2022-10-14T12:25:03.784Z,15.60
2022-10-14T12:27:30.680Z,15.60
2022-10-14T12:30:00.062Z,15.70
2022-10-14T12:32:27.747Z,15.70
2022-10-14T12:35:35.741Z,15.70
2022-10-14T12:38:05.798Z,15.70
2022-10-14T12:40:32.641Z,15.80
2022-10-14T12:43:13.572Z,15.80
2022-10-14T12:45:48.236Z,15.80
2022-10-14T12:48:21.261Z,15.90
2022-10-14T12:50:48.725Z,15.90
2022-10-14T12:53:22.658Z,15.90
2022-10-14T12:56:03.027Z,15.90
2022-10-14T12:58:41.428Z,15.90
2022-10-14T13:01:19.171Z,15.90
2022-10-14T13:03:52.691Z,16.00
2022-10-14T13:06:32.721Z,16.00
2022-10-14T13:09:15.121Z,15.90
2022-10-14T13:11:53.728Z,15.90
2022-10-14T13:14:27.599Z,15.90
2022-10-14T13:16:55.703Z,15.90
2022-10-14T13:19:34.740Z,15.90
2022-10-14T13:22:02.811Z,15.90
2022-10-14T13:24:35.891Z,15.90
2022-10-14T13:27:30.113Z,15.80
2022-10-14T13:30:24.810Z,15.80
2022-10-14T13:33:25.308Z,15.80
2022-10-14T13:36:42.180Z,15.80
2022-10-14T13:39:08.977Z,15.80
2022-10-14T13:41:39.115Z,15.80
2022-10-14T13:44:05.924Z,15.80
2022-10-14T13:46:52.547Z,15.90
2022-10-14T13:49:40.716Z,15.90
2022-10-14T13:52:10.734Z,15.90
2022-10-14T13:54:37.485Z,15.90
2022-10-14T13:57:53.638Z,16.00
2022-10-14T14:02:50.346Z,16.00
2022-10-14T14:05:22.244Z,15.90
2022-10-14T14:10:51.439Z,16.00
2022-10-14T14:13:24.730Z,15.90
2022-10-14T14:15:52.381Z,15.90
2022-10-14T14:19:03.587Z,15.90
2022-10-14T14:21:28.551Z,15.80
2022-10-14T14:23:59.734Z,15.80
2022-10-14T14:26:32.709Z,15.80
2022-10-14T14:29:02.599Z,15.80
2022-10-14T14:31:47.922Z,15.80
2022-10-14T14:34:19.688Z,15.80
2022-10-14T14:36:51.765Z,15.80
2022-10-14T14:39:27.427Z,15.80
2022-10-14T14:41:58.321Z,15.70
2022-10-14T14:44:33.215Z,15.70
2022-10-14T14:47:01.850Z,15.70
2022-10-14T14:49:32.923Z,15.70
2022-10-14T14:52:00.166Z,15.60
2022-10-14T14:54:28.785Z,15.60
2022-10-14T14:57:04.074Z,15.60
2022-10-14T14:59:36.567Z,15.60
2022-10-14T15:02:15.450Z,15.50
2022-10-14T15:04:42.264Z,15.50
2022-10-14T15:07:18.692Z,15.50
2022-10-14T15:09:52.105Z,15.50
2022-10-14T15:12:21.336Z,15.50
2022-10-14T15:14:53.314Z,15.40
2022-10-14T15:17:39.580Z,15.40
2022-10-14T15:20:29.127Z,15.40
2022-10-14T15:22:58.451Z,15.40
2022-10-14T15:25:31.141Z,15.40
2022-10-14T15:27:58.400Z,15.40
2022-10-14T15:30:40.278Z,15.30
2022-10-14T15:33:14.237Z,15.30
2022-10-14T15:35:43.320Z,15.30
2022-10-14T15:38:17.132Z,15.20
2022-10-14T15:40:47.123Z,15.20
2022-10-14T15:43:17.607Z,15.20
2022-10-14T15:45:45.541Z,15.20
2022-10-14T15:48:19.313Z,15.20
2022-10-14T15:50:46.993Z,15.20
2022-10-14T15:53:13.749Z,15.10
2022-10-14T15:55:40.521Z,15.10
2022-10-14T15:58:08.041Z,15.10
2022-10-14T16:00:34.815Z,15.10
2022-10-14T16:03:03.986Z,15.00
2022-10-14T16:05:33.820Z,15.00
2022-10-14T16:08:00.573Z,15.00
2022-10-14T16:10:33.658Z,15.00
2022-10-14T16:13:01.243Z,15.00
2022-10-14T16:15:47.108Z,15.00
2022-10-14T16:18:14.280Z,15.00
2022-10-14T16:20:41.124Z,15.00
2022-10-14T16:23:07.915Z,15.00
2022-10-14T16:25:40.883Z,15.00
2022-10-14T16:28:10.667Z,15.00
2022-10-14T16:30:44.117Z,15.00
2022-10-14T16:35:38.573Z,15.00
2022-10-14T16:38:05.372Z,15.00
2022-10-14T16:40:36.594Z,15.00
2022-10-14T16:43:04.056Z,15.00
2022-10-14T16:45:30.873Z,15.00
2022-10-14T16:48:02.337Z,15.00
2022-10-14T16:50:29.121Z,14.90
2022-10-14T16:53:14.604Z,14.90
2022-10-14T16:55:41.374Z,14.90
2022-10-14T16:58:08.547Z,14.80
2022-10-14T17:00:35.311Z,14.80
2022-10-14T17:03:02.202Z,14.80
2022-10-14T17:05:31.489Z,14.80
2022-10-14T17:07:58.394Z,14.80
2022-10-14T17:10:27.719Z,14.70
2022-10-14T17:12:57.550Z,14.70
2022-10-14T17:15:24.914Z,14.70
2022-10-14T17:17:53.090Z,14.60
2022-10-14T17:20:21.219Z,14.50
2022-10-14T17:22:49.848Z,14.50
2022-10-14T17:25:17.824Z,14.50
2022-10-14T17:27:44.705Z,14.60
2022-10-14T17:30:12.040Z,14.60
2022-10-14T17:32:41.655Z,14.50
2022-10-14T17:35:14.473Z,14.50
2022-10-14T17:37:42.537Z,14.50
2022-10-14T17:40:11.850Z,14.50
2022-10-14T17:42:38.581Z,14.50
2022-10-14T17:45:08.664Z,14.50
2022-10-14T17:47:35.538Z,14.40
2022-10-14T17:50:05.438Z,14.40
2022-10-14T17:52:32.214Z,14.40
2022-10-14T17:55:01.710Z,14.40
2022-10-14T17:57:28.566Z,14.40
2022-10-14T17:59:55.296Z,14.40
2022-10-14T18:02:22.187Z,14.40
2022-10-14T18:04:49.074Z,14.30
2022-10-14T18:07:16.352Z,14.30
2022-10-14T18:09:43.666Z,14.30
2022-10-14T18:12:10.791Z,14.30
2022-10-14T18:14:41.251Z,14.30
2022-10-14T18:17:10.735Z,14.20
2022-10-14T18:19:40.839Z,14.20
2022-10-14T18:22:07.786Z,14.20
2022-10-14T18:24:38.973Z,14.20
2022-10-14T18:27:05.893Z,14.20
2022-10-14T18:29:34.885Z,14.20
2022-10-14T18:32:01.676Z,14.10
2022-10-14T18:34:31.022Z,14.10
2022-10-14T18:37:02.466Z,14.10
2022-10-14T18:39:29.218Z,14.00
2022-10-14T18:41:56.172Z,14.00
2022-10-14T18:44:25.520Z,13.90
2022-10-14T18:46:52.841Z,13.90
2022-10-14T18:49:21.905Z,13.90
2022-10-14T18:51:48.733Z,13.90
2022-10-14T18:54:20.134Z,13.80
2022-10-14T18:56:49.359Z,13.80
2022-10-14T18:59:23.187Z,13.80
2022-10-14T19:01:53.656Z,13.80
2022-10-14T19:04:21.952Z,13.80
2022-10-14T19:06:49.874Z,13.80
2022-10-14T19:09:21.462Z,13.80
2022-10-14T19:11:51.596Z,13.80
2022-10-14T19:14:18.406Z,13.80
2022-10-14T19:16:47.510Z,13.80
2022-10-14T19:19:18.086Z,13.80
2022-10-14T19:21:45.680Z,13.80
2022-10-14T19:24:12.801Z,13.80
2022-10-14T19:26:41.509Z,13.80
2022-10-14T19:29:14.502Z,13.80
2022-10-14T19:31:44.164Z,13.80
2022-10-14T19:34:12.845Z,13.80
2022-10-14T19:36:39.756Z,13.80
2022-10-14T19:39:10.145Z,13.70
2022-10-14T19:41:43.135Z,13.70
2022-10-14T19:44:10.988Z,13.70
2022-10-14T19:46:42.229Z,13.70
2022-10-14T19:49:13.594Z,13.70
2022-10-14T19:51:40.492Z,13.70
2022-10-14T19:54:12.442Z,13.70
2022-10-14T19:56:41.727Z,13.60
2022-10-14T19:59:08.650Z,13.60
2022-10-14T20:01:37.723Z,13.60
2022-10-14T20:04:04.557Z,13.50
2022-10-14T20:06:35.778Z,13.50
2022-10-14T20:09:02.748Z,13.50
2022-10-14T20:11:29.532Z,13.50
2022-10-14T20:13:56.394Z,13.50
2022-10-14T20:16:23.220Z,13.50
2022-10-14T20:18:52.438Z,13.50
2022-10-14T20:21:19.256Z,13.50
2022-10-14T20:23:45.985Z,13.50
2022-10-14T20:26:14.981Z,13.40
2022-10-14T20:28:41.926Z,13.40
2022-10-14T20:31:12.275Z,13.40
2022-10-14T20:33:41.552Z,13.40
2022-10-14T20:36:13.585Z,13.40
2022-10-14T20:38:40.707Z,13.40
2022-10-14T20:41:18.507Z,13.40
2022-10-14T20:43:45.618Z,13.40
2022-10-14T20:46:12.572Z,13.30
2022-10-14T20:48:39.894Z,13.40
2022-10-14T20:51:10.384Z,13.40
2022-10-14T20:53:37.462Z,13.30
2022-10-14T20:56:07.318Z,13.30
2022-10-14T20:58:34.194Z,13.30
2022-10-14T21:01:05.855Z,13.30
2022-10-14T21:03:35.221Z,13.20
2022-10-14T21:06:09.084Z,13.20
2022-10-14T21:08:36.092Z,13.20
2022-10-14T21:11:05.502Z,13.20
2022-10-14T21:13:33.135Z,13.20
2022-10-14T21:15:59.888Z,13.10
2022-10-14T21:18:29.539Z,13.10
2022-10-14T21:20:56.308Z,13.10
2022-10-14T21:23:23.158Z,13.10
2022-10-14T21:26:03.319Z,13.10
2022-10-14T21:28:32.420Z,13.10
2022-10-14T21:31:01.363Z,13.10
2022-10-14T21:33:30.218Z,13.10
2022-10-14T21:36:04.664Z,13.10
2022-10-14T21:38:31.503Z,13.00
2022-10-14T21:41:00.046Z,13.00
2022-10-14T21:43:30.276Z,13.00
2022-10-14T21:46:03.420Z,13.00
2022-10-14T21:48:32.499Z,13.00
2022-10-14T21:51:13.775Z,12.90
2022-10-14T21:53:41.429Z,12.90
2022-10-14T21:56:08.607Z,12.90
2022-10-14T21:58:37.704Z,12.90
2022-10-14T22:01:16.942Z,12.90
2022-10-14T22:03:44.208Z,12.80
2022-10-14T22:06:18.197Z,12.80
2022-10-14T22:08:48.708Z,12.80
2022-10-14T22:11:21.652Z,12.80
2022-10-14T22:13:48.791Z,12.70
2022-10-14T22:16:16.980Z,12.70
2022-10-14T22:18:46.975Z,12.70
2022-10-14T22:21:15.369Z,12.70
2022-10-14T22:23:46.825Z,12.70
2022-10-14T22:26:20.306Z,12.60
2022-10-14T22:28:47.400Z,12.60
2022-10-14T22:31:19.026Z,12.60
2022-10-14T22:33:48.879Z,12.60
2022-10-14T22:36:24.099Z,12.50
2022-10-14T22:38:53.903Z,12.50
2022-10-14T22:41:21.205Z,12.40
2022-10-14T22:43:49.364Z,12.40
2022-10-14T22:46:19.560Z,12.40
2022-10-14T22:48:49.187Z,12.30
2022-10-14T22:51:18.235Z,12.30
2022-10-14T22:53:47.570Z,12.30
2022-10-14T22:56:17.623Z,12.40
2022-10-14T22:58:46.862Z,12.30
2022-10-14T23:01:15.141Z,12.30
2022-10-14T23:03:42.009Z,12.30
2022-10-14T23:06:10.636Z,12.30
2022-10-14T23:08:39.517Z,12.20
2022-10-14T23:11:06.633Z,12.20
2022-10-14T23:13:35.615Z,12.30
2022-10-14T23:16:09.598Z,12.20
2022-10-14T23:18:39.101Z,12.30
2022-10-14T23:21:08.950Z,12.30
2022-10-14T23:23:38.247Z,12.30
2022-10-14T23:26:05.384Z,12.20
2022-10-14T23:28:32.166Z,12.20
2022-10-14T23:31:01.312Z,12.20
2022-10-14T23:33:28.284Z,12.10
2022-10-14T23:35:55.082Z,12.10
2022-10-14T23:38:21.891Z,12.10
2022-10-14T23:40:50.751Z,12.10
2022-10-14T23:43:19.471Z,12.10
2022-10-14T23:45:48.534Z,12.10
2022-10-14T23:48:15.346Z,12.10
2022-10-14T23:50:49.205Z,12.10
2022-10-14T23:53:18.545Z,12.10
2022-10-14T23:55:47.735Z,12.00
2022-10-14T23:58:14.664Z,12.00
